Huvudsida
METAR-TAF:

METAR-TAF

Flygplatser :

Sentani Airport

Jayapura, Indonesien

latitud: 02-34-37S, longitud: 140-30-58E, höjd: 88 m

Aktuellt väderrapport

Denna rapport gjordes för 29 minuter sedan, klockan 20:00 UTC
Vind 1 kt varierande vindriktning
Temperatur 25°C
Fuktighet 100%
Tryck 1010 hPa
Sikt: 6000 m
Brutna moln på en höjd av 900 ft
lätt regn,

METAR: WAJJ 222000Z VRB01KT 6000 -RA BKN009 25/25 Q1010

Tid: 03:29 (20:29 UTC)


TAF: saknas

Aktuella väderrapporter och prognoser från 4000 flygplatser (METAR- och TAF-rapporter).

De tillgängliga stationerna syns som gula och röda prickar på kartan.

För musen över prickarna för att se namnen på stationerna.

Klicka sedan för att få väderrapporter och prognoser.

För att ändra kartan: Klicka på de gröna knapparna med ett svart kors på för att zooma in; den gröna knappen med ett streck på för att zooma ut; eller på de gröna pilarna för angränsande kartor.


METAR-TAF: